createdAt,value
2022-11-11T00:00:33.047Z,7.48
2022-11-11T00:03:23.967Z,7.47
2022-11-11T00:06:15.391Z,7.43
2022-11-11T00:09:00.910Z,7.41
2022-11-11T00:11:46.475Z,7.40
2022-11-11T00:14:31.965Z,7.41
2022-11-11T00:17:36.204Z,7.41
2022-11-11T00:20:44.441Z,7.42
2022-11-11T00:23:49.294Z,7.36
2022-11-11T00:26:40.005Z,7.26
2022-11-11T00:29:26.138Z,7.20
2022-11-11T00:32:23.816Z,7.15
2022-11-11T00:35:28.850Z,7.12
2022-11-11T00:38:34.192Z,7.04
2022-11-11T00:41:21.439Z,7.06
2022-11-11T00:44:07.566Z,7.04
2022-11-11T00:47:11.619Z,7.03
2022-11-11T00:50:15.786Z,7.06
2022-11-11T00:53:02.582Z,6.97
2022-11-11T00:55:48.334Z,6.92
2022-11-11T00:58:34.193Z,6.82
2022-11-11T01:01:19.660Z,6.84
2022-11-11T01:04:06.463Z,6.80
2022-11-11T01:06:51.829Z,6.77
2022-11-11T01:09:37.294Z,6.76
2022-11-11T01:12:22.986Z,6.75
2022-11-11T01:15:08.643Z,6.75
2022-11-11T01:17:54.366Z,6.74
2022-11-11T01:20:40.018Z,6.72
2022-11-11T01:23:26.529Z,6.76
2022-11-11T01:26:26.139Z,6.82
2022-11-11T01:29:14.979Z,6.87
2022-11-11T01:32:00.702Z,6.89
2022-11-11T01:34:46.355Z,6.92
2022-11-11T01:37:34.039Z,6.94
2022-11-11T01:40:20.503Z,6.98
2022-11-11T01:43:06.143Z,6.95
2022-11-11T01:46:03.994Z,6.99
2022-11-11T01:49:12.320Z,6.97
2022-11-11T01:52:10.681Z,6.98
2022-11-11T01:54:59.185Z,6.90
2022-11-11T01:57:52.826Z,6.85
2022-11-11T02:00:39.060Z,6.84
2022-11-11T02:03:26.613Z,6.79
2022-11-11T02:06:12.678Z,6.79
2022-11-11T02:08:58.446Z,6.78
2022-11-11T02:12:04.326Z,6.79
2022-11-11T02:14:53.525Z,6.75
2022-11-11T02:17:39.561Z,6.77
2022-11-11T02:20:27.802Z,6.79
2022-11-11T02:23:19.628Z,6.74
2022-11-11T02:26:07.261Z,6.74
2022-11-11T02:28:55.197Z,6.74
2022-11-11T02:31:41.243Z,6.79
2022-11-11T02:34:35.102Z,6.84
2022-11-11T02:37:25.423Z,6.90
2022-11-11T02:40:14.707Z,6.92
2022-11-11T02:43:01.239Z,6.97
2022-11-11T02:45:47.118Z,6.97
2022-11-11T02:48:33.185Z,7.00
2022-11-11T02:51:18.752Z,6.98
2022-11-11T02:54:04.711Z,6.96
2022-11-11T02:57:08.808Z,6.91
2022-11-11T02:59:54.379Z,6.91
2022-11-11T03:02:40.380Z,6.90
2022-11-11T03:05:26.360Z,6.85
2022-11-11T03:08:12.131Z,6.82
2022-11-11T03:10:57.980Z,6.82
2022-11-11T03:13:43.865Z,6.84
2022-11-11T03:16:48.212Z,6.83
2022-11-11T03:19:34.844Z,6.78
2022-11-11T03:25:38.338Z,6.84
2022-11-11T03:28:26.839Z,6.86
2022-11-11T03:31:12.839Z,6.86
2022-11-11T03:34:18.422Z,6.87
2022-11-11T03:37:25.221Z,6.85
2022-11-11T03:40:11.380Z,6.86
2022-11-11T03:43:02.940Z,6.83
2022-11-11T03:45:52.005Z,6.82
2022-11-11T03:48:38.040Z,6.83
2022-11-11T03:51:23.943Z,6.79
2022-11-11T03:54:09.822Z,6.80
2022-11-11T03:57:15.420Z,6.80
2022-11-11T04:00:01.179Z,6.73
2022-11-11T04:03:05.939Z,6.72
2022-11-11T04:06:10.600Z,6.74
2022-11-11T04:09:15.071Z,6.74
2022-11-11T04:12:00.740Z,6.73
2022-11-11T04:15:04.747Z,6.69
2022-11-11T04:17:50.419Z,6.67
2022-11-11T04:20:54.180Z,6.65
2022-11-11T04:23:40.160Z,6.63
2022-11-11T04:26:26.019Z,6.62
2022-11-11T04:29:29.820Z,6.57
2022-11-11T04:32:35.845Z,6.58
2022-11-11T04:35:21.668Z,6.54
2022-11-11T04:38:27.301Z,6.54
2022-11-11T04:41:13.340Z,6.54
2022-11-11T04:44:17.306Z,6.57
2022-11-11T04:47:03.080Z,6.56
2022-11-11T04:49:48.780Z,6.56
2022-11-11T04:52:34.242Z,6.53
2022-11-11T04:55:38.459Z,6.52
2022-11-11T04:58:26.101Z,6.50
2022-11-11T05:01:11.521Z,6.48
2022-11-11T05:03:57.381Z,6.48
2022-11-11T05:07:01.487Z,6.52
2022-11-11T05:09:47.040Z,6.55
2022-11-11T05:12:32.508Z,6.59
2022-11-11T05:15:36.401Z,6.59
2022-11-11T05:18:40.631Z,6.52
2022-11-11T05:21:30.048Z,6.48
2022-11-11T05:24:33.969Z,6.47
2022-11-11T05:27:21.529Z,6.49
2022-11-11T05:30:09.579Z,6.47
2022-11-11T05:32:56.060Z,6.50
2022-11-11T05:35:42.151Z,6.48
2022-11-11T05:38:27.848Z,6.52
2022-11-11T05:41:13.578Z,6.53
2022-11-11T05:43:59.407Z,6.57
2022-11-11T05:46:45.132Z,6.57
2022-11-11T05:49:31.107Z,6.61
2022-11-11T05:52:18.050Z,6.62
2022-11-11T05:55:03.552Z,6.64
2022-11-11T05:57:50.994Z,6.64
2022-11-11T06:00:36.807Z,6.63
2022-11-11T06:03:22.624Z,6.59
2022-11-11T06:06:08.908Z,6.60
2022-11-11T06:08:54.656Z,6.56
2022-11-11T06:11:40.807Z,6.55
2022-11-11T06:14:26.328Z,6.57
2022-11-11T06:17:11.775Z,6.61
2022-11-11T06:19:57.435Z,6.68
2022-11-11T06:22:58.070Z,6.72
2022-11-11T06:26:02.410Z,6.77
2022-11-11T06:28:51.070Z,6.88
2022-11-11T06:31:36.917Z,6.97
2022-11-11T06:34:22.690Z,7.08
2022-11-11T06:37:08.230Z,7.10
2022-11-11T06:39:53.726Z,7.12
2022-11-11T06:42:39.467Z,7.17
2022-11-11T06:45:26.150Z,7.25
2022-11-11T06:48:12.647Z,7.32
2022-11-11T06:51:06.550Z,7.33
2022-11-11T06:53:52.451Z,7.39
2022-11-11T06:56:38.352Z,7.43
2022-11-11T06:59:23.987Z,7.49
2022-11-11T07:02:14.348Z,7.52
2022-11-11T07:05:00.799Z,7.55
2022-11-11T07:07:46.587Z,7.56
2022-11-11T07:10:34.090Z,7.59
2022-11-11T07:13:19.710Z,7.63
2022-11-11T07:16:05.550Z,7.64
2022-11-11T07:18:51.213Z,7.69
2022-11-11T07:21:37.031Z,7.71
2022-11-11T07:24:22.867Z,7.73
2022-11-11T07:27:08.433Z,7.71
2022-11-11T07:29:54.347Z,7.69
2022-11-11T07:32:48.408Z,7.65
2022-11-11T07:35:33.868Z,7.64
2022-11-11T07:38:19.687Z,7.64
2022-11-11T07:41:05.669Z,7.68
2022-11-11T07:43:51.308Z,7.69
2022-11-11T07:46:37.115Z,7.73
2022-11-11T07:49:22.590Z,7.75
2022-11-11T07:52:08.128Z,7.77
2022-11-11T07:54:53.868Z,7.83
2022-11-11T07:57:39.389Z,7.90
2022-11-11T08:00:25.263Z,7.98
2022-11-11T08:03:10.987Z,8.06
2022-11-11T08:05:56.848Z,8.16
2022-11-11T08:08:42.611Z,8.25
2022-11-11T08:11:46.928Z,8.38
2022-11-11T08:14:32.770Z,8.47
2022-11-11T08:17:18.128Z,8.59
2022-11-11T08:20:04.209Z,8.74
2022-11-11T08:23:15.697Z,8.88
2022-11-11T08:26:04.052Z,9.06
2022-11-11T08:28:51.828Z,9.23
2022-11-11T08:31:39.508Z,9.37
2022-11-11T08:34:25.126Z,9.49
2022-11-11T08:37:10.658Z,9.63
2022-11-11T08:39:56.174Z,9.75
2022-11-11T08:42:42.420Z,9.88
2022-11-11T08:45:28.450Z,9.98
2022-11-11T08:48:14.750Z,10.12
2022-11-11T08:51:00.512Z,10.21
2022-11-11T08:53:46.367Z,10.33
2022-11-11T08:56:32.147Z,10.43
2022-11-11T08:59:17.828Z,10.56
2022-11-11T09:02:03.590Z,10.67
2022-11-11T09:04:54.315Z,10.75
2022-11-11T09:07:41.310Z,10.88
2022-11-11T09:10:26.951Z,11.03
2022-11-11T09:13:12.578Z,11.19
2022-11-11T09:15:59.955Z,11.28
2022-11-11T09:18:46.589Z,11.44
2022-11-11T09:21:32.332Z,11.54
2022-11-11T09:24:17.770Z,11.54
2022-11-11T09:27:03.249Z,11.74
2022-11-11T09:29:48.828Z,11.88
2022-11-11T09:32:34.529Z,12.00
2022-11-11T09:35:20.150Z,12.09
2022-11-11T09:38:05.655Z,12.16
2022-11-11T09:40:54.408Z,12.25
2022-11-11T09:43:47.067Z,12.33
2022-11-11T09:46:46.073Z,12.52
2022-11-11T09:49:31.671Z,12.61
2022-11-11T09:52:23.870Z,12.68
2022-11-11T09:55:34.070Z,12.75
2022-11-11T09:58:57.739Z,12.85
2022-11-11T10:01:56.510Z,12.92
2022-11-11T10:04:54.269Z,12.96
2022-11-11T10:07:46.851Z,12.98
2022-11-11T10:11:00.355Z,13.00
2022-11-11T10:13:46.331Z,13.05
2022-11-11T10:16:47.517Z,13.01
2022-11-11T10:19:53.549Z,13.02
2022-11-11T10:22:42.595Z,13.03
2022-11-11T10:25:28.687Z,13.07
2022-11-11T10:28:18.347Z,13.10
2022-11-11T10:31:12.032Z,13.01
2022-11-11T10:34:10.928Z,13.08
2022-11-11T10:36:58.293Z,13.11
2022-11-11T10:39:55.107Z,13.15
2022-11-11T10:42:43.659Z,13.14
2022-11-11T10:45:56.264Z,13.13
2022-11-11T10:49:00.780Z,13.13
2022-11-11T10:51:52.908Z,13.11
2022-11-11T10:54:50.309Z,13.12
2022-11-11T10:57:42.293Z,13.11
2022-11-11T11:00:29.088Z,13.11
2022-11-11T11:03:20.569Z,13.12
2022-11-11T11:06:09.107Z,13.13
2022-11-11T11:09:14.699Z,13.14
2022-11-11T11:12:07.006Z,13.19
2022-11-11T11:14:59.369Z,13.27
2022-11-11T11:18:00.626Z,13.41
2022-11-11T11:21:01.228Z,13.47
2022-11-11T11:23:47.554Z,13.57
2022-11-11T11:27:07.907Z,13.73
2022-11-11T11:29:53.851Z,13.77
2022-11-11T11:32:42.646Z,13.73
2022-11-11T11:35:36.069Z,13.91
2022-11-11T11:38:22.201Z,13.86
2022-11-11T11:41:07.834Z,13.98
2022-11-11T11:43:53.471Z,14.00
2022-11-11T11:46:42.986Z,14.10
2022-11-11T11:50:08.046Z,14.26
2022-11-11T11:53:07.808Z,14.31
2022-11-11T11:56:07.646Z,14.46
2022-11-11T11:59:05.790Z,14.59
2022-11-11T12:13:35.657Z,15.47
2022-11-11T12:16:25.016Z,15.80
2022-11-11T12:19:13.407Z,16.27
2022-11-11T12:22:19.177Z,16.93
2022-11-11T12:25:20.146Z,17.61
2022-11-11T12:28:41.647Z,18.26
2022-11-11T12:31:36.430Z,18.45
2022-11-11T12:34:24.969Z,18.95
2022-11-11T12:37:23.796Z,19.30
2022-11-11T12:40:21.648Z,19.83
2022-11-11T12:43:19.710Z,20.30
2022-11-11T12:46:29.967Z,20.79
2022-11-11T12:49:18.648Z,21.12
2022-11-11T12:52:30.011Z,21.86
2022-11-11T12:55:34.338Z,22.67
2022-11-11T12:58:42.400Z,23.54
2022-11-11T13:01:33.615Z,23.52
2022-11-11T13:04:42.666Z,22.96
2022-11-11T13:07:51.168Z,22.63
2022-11-11T13:11:08.529Z,22.10
2022-11-11T13:13:59.247Z,21.68
2022-11-11T13:16:45.369Z,21.12
2022-11-11T13:19:50.053Z,20.45
2022-11-11T13:22:36.009Z,20.04
2022-11-11T13:25:24.916Z,19.57
2022-11-11T13:28:32.347Z,19.19
2022-11-11T13:31:24.454Z,19.10
2022-11-11T13:34:12.751Z,18.75
2022-11-11T13:36:58.891Z,18.47
2022-11-11T13:39:53.145Z,18.41
2022-11-11T13:42:50.762Z,18.13
2022-11-11T13:45:41.515Z,17.83
2022-11-11T13:48:31.967Z,17.38
2022-11-11T13:51:41.670Z,17.22
2022-11-11T13:54:37.967Z,17.02
2022-11-11T13:57:27.949Z,16.77
2022-11-11T14:00:21.617Z,16.51
2022-11-11T14:03:22.312Z,16.35
2022-11-11T14:06:17.228Z,16.09
2022-11-11T14:09:04.049Z,15.91
2022-11-11T14:11:49.887Z,15.76
2022-11-11T14:14:35.126Z,15.55
2022-11-11T14:17:21.554Z,15.44
2022-11-11T14:20:34.847Z,15.25
2022-11-11T14:23:41.849Z,15.09
2022-11-11T14:26:28.598Z,14.99
2022-11-11T14:29:20.127Z,14.88
2022-11-11T14:32:27.671Z,14.81
2022-11-11T14:35:36.654Z,14.70
2022-11-11T14:38:32.069Z,14.56
2022-11-11T14:41:42.335Z,14.48
2022-11-11T14:44:28.048Z,14.40
2022-11-11T14:47:13.467Z,14.32
2022-11-11T14:50:00.168Z,14.24
2022-11-11T14:52:47.749Z,14.15
2022-11-11T14:55:36.089Z,14.04
2022-11-11T14:58:25.917Z,13.93
2022-11-11T15:01:17.677Z,13.87
2022-11-11T15:04:04.768Z,13.78
2022-11-11T15:06:59.055Z,13.66
2022-11-11T15:10:09.394Z,13.54
2022-11-11T15:13:00.568Z,13.43
2022-11-11T15:16:17.214Z,13.32
2022-11-11T15:19:19.428Z,13.13
2022-11-11T15:22:09.908Z,13.00
2022-11-11T15:25:25.935Z,12.91
2022-11-11T15:28:39.911Z,12.74
2022-11-11T15:31:46.709Z,12.59
2022-11-11T15:35:01.612Z,12.44
2022-11-11T15:37:53.248Z,12.35
2022-11-11T15:40:48.449Z,12.24
2022-11-11T15:43:35.550Z,12.17
2022-11-11T15:46:31.223Z,12.09
2022-11-11T15:49:43.550Z,11.99
2022-11-11T15:52:37.494Z,11.91
2022-11-11T15:55:33.988Z,11.70
2022-11-11T15:58:31.249Z,11.62
2022-11-11T16:01:17.550Z,11.51
2022-11-11T16:04:08.188Z,11.43
2022-11-11T16:06:53.717Z,11.34
2022-11-11T16:09:39.654Z,11.30
2022-11-11T16:12:33.329Z,11.24
2022-11-11T16:15:35.108Z,11.14
2022-11-11T16:18:49.328Z,11.13
2022-11-11T16:21:47.970Z,11.04
2022-11-11T16:24:37.790Z,10.98
2022-11-11T16:27:29.251Z,10.90
2022-11-11T16:30:28.609Z,10.79
2022-11-11T16:33:40.416Z,10.74
2022-11-11T16:36:26.209Z,10.64
2022-11-11T16:39:19.509Z,10.59
2022-11-11T16:42:22.168Z,10.45
2022-11-11T16:45:19.849Z,10.40
2022-11-11T16:48:05.437Z,10.32
2022-11-11T16:50:59.667Z,10.32
2022-11-11T16:53:55.108Z,10.29
2022-11-11T16:56:50.068Z,10.26
2022-11-11T16:59:48.112Z,10.22
2022-11-11T17:02:34.916Z,10.16
2022-11-11T17:05:57.440Z,10.12
2022-11-11T17:08:45.331Z,10.08
2022-11-11T17:11:40.111Z,10.02
2022-11-11T17:14:27.815Z,9.97
2022-11-11T17:17:13.709Z,9.98
2022-11-11T17:20:06.192Z,9.94
2022-11-11T17:22:54.408Z,9.94
2022-11-11T17:25:40.360Z,9.90
2022-11-11T17:28:27.570Z,9.86
2022-11-11T17:31:13.967Z,9.75
2022-11-11T17:33:59.792Z,9.70
2022-11-11T17:36:45.349Z,9.61
2022-11-11T17:39:31.130Z,9.67
2022-11-11T17:42:16.840Z,9.63
2022-11-11T17:45:04.230Z,9.56
2022-11-11T17:47:49.709Z,9.53
2022-11-11T17:50:37.533Z,9.47
2022-11-11T17:53:23.088Z,9.39
2022-11-11T17:56:11.392Z,9.28
2022-11-11T17:58:56.787Z,9.23
2022-11-11T18:01:42.249Z,9.17
2022-11-11T18:04:28.073Z,9.14
2022-11-11T18:07:13.856Z,9.15
2022-11-11T18:09:59.828Z,9.16
2022-11-11T18:12:45.668Z,9.16
2022-11-11T18:15:34.506Z,9.14
2022-11-11T18:18:20.268Z,9.13
2022-11-11T18:21:06.608Z,9.13
2022-11-11T18:23:52.069Z,9.08
2022-11-11T18:26:39.107Z,9.07
2022-11-11T18:29:25.029Z,9.06
2022-11-11T18:32:10.749Z,9.09
2022-11-11T18:34:56.308Z,9.12
2022-11-11T18:37:46.413Z,9.11
2022-11-11T18:40:32.593Z,9.14
2022-11-11T18:43:18.288Z,9.15
2022-11-11T18:46:09.775Z,9.15
2022-11-11T18:48:57.149Z,9.16
2022-11-11T18:51:42.511Z,9.16
2022-11-11T18:54:30.584Z,9.15
2022-11-11T18:57:16.648Z,9.15
2022-11-11T19:00:02.731Z,9.14
2022-11-11T19:02:48.387Z,9.12
2022-11-11T19:05:34.562Z,9.13
2022-11-11T19:08:20.669Z,9.09
2022-11-11T19:11:08.632Z,9.04
2022-11-11T19:13:55.352Z,9.05
2022-11-11T19:16:42.307Z,8.99
2022-11-11T19:19:28.187Z,8.97
2022-11-11T19:22:13.846Z,8.95
2022-11-11T19:24:59.367Z,8.87
2022-11-11T19:27:44.968Z,8.84
2022-11-11T19:30:30.452Z,8.85
2022-11-11T19:33:16.247Z,8.86
2022-11-11T19:36:07.873Z,8.86
2022-11-11T19:38:53.288Z,8.89
2022-11-11T19:41:38.857Z,8.92
2022-11-11T19:44:24.709Z,8.94
2022-11-11T19:47:10.529Z,8.97
2022-11-11T19:49:56.329Z,9.02
2022-11-11T19:52:42.133Z,9.05
2022-11-11T19:55:27.647Z,9.03
2022-11-11T19:58:13.448Z,9.02
2022-11-11T20:00:58.990Z,8.96
2022-11-11T20:03:45.768Z,8.89
2022-11-11T20:06:33.779Z,8.86
2022-11-11T20:09:19.308Z,8.87
2022-11-11T20:12:05.169Z,8.88
2022-11-11T20:14:51.168Z,8.89
2022-11-11T20:17:36.848Z,8.90
2022-11-11T20:20:22.750Z,8.92
2022-11-11T20:23:08.389Z,8.92
2022-11-11T20:25:55.020Z,8.89
2022-11-11T20:28:41.506Z,8.89
2022-11-11T20:31:28.520Z,8.88
2022-11-11T20:34:14.209Z,8.87
2022-11-11T20:37:01.461Z,8.87
2022-11-11T20:39:47.148Z,8.83
2022-11-11T20:42:33.088Z,8.81
2022-11-11T20:45:18.767Z,8.76
2022-11-11T20:48:08.807Z,8.70
2022-11-11T20:51:08.329Z,8.65
2022-11-11T20:53:57.829Z,8.58
2022-11-11T20:56:45.677Z,8.55
2022-11-11T20:59:31.433Z,8.45
2022-11-11T21:02:22.846Z,8.40
2022-11-11T21:05:09.908Z,8.36
2022-11-11T21:07:55.408Z,8.33
2022-11-11T21:10:40.888Z,8.30
2022-11-11T21:13:27.615Z,8.25
2022-11-11T21:16:17.423Z,8.23
2022-11-11T21:19:04.167Z,8.19
2022-11-11T21:21:50.170Z,8.15
2022-11-11T21:24:37.071Z,8.11
2022-11-11T21:27:23.148Z,8.10
2022-11-11T21:30:09.389Z,8.10
2022-11-11T21:32:55.089Z,8.10
2022-11-11T21:35:40.729Z,8.08
2022-11-11T21:38:26.679Z,8.12
2022-11-11T21:41:17.928Z,8.12
2022-11-11T21:44:08.832Z,8.16
2022-11-11T21:46:54.669Z,8.08
2022-11-11T21:49:40.509Z,8.04
2022-11-11T21:52:26.068Z,7.96
2022-11-11T21:55:11.649Z,7.94
2022-11-11T21:57:57.033Z,7.90
2022-11-11T22:00:42.831Z,7.89
2022-11-11T22:03:28.650Z,7.84
2022-11-11T22:06:15.748Z,7.88
2022-11-11T22:09:02.470Z,7.88
2022-11-11T22:11:48.153Z,7.90
2022-11-11T22:14:33.510Z,7.90
2022-11-11T22:17:19.128Z,7.89
2022-11-11T22:20:04.869Z,7.89
2022-11-11T22:22:50.330Z,7.87
2022-11-11T22:25:35.850Z,7.82
2022-11-11T22:28:21.436Z,7.81
2022-11-11T22:31:10.430Z,7.77
2022-11-11T22:34:23.269Z,7.72
2022-11-11T22:37:08.869Z,7.66
2022-11-11T22:39:54.248Z,7.65
2022-11-11T22:42:39.949Z,7.63
2022-11-11T22:45:25.636Z,7.67
2022-11-11T22:48:11.270Z,7.69
2022-11-11T22:51:08.029Z,7.72
2022-11-11T22:54:01.835Z,7.70
2022-11-11T22:56:48.931Z,7.69
2022-11-11T22:59:34.589Z,7.70
2022-11-11T23:02:20.087Z,7.65
2022-11-11T23:05:05.971Z,7.57
2022-11-11T23:07:53.437Z,7.51
2022-11-11T23:10:38.909Z,7.46
2022-11-11T23:13:24.511Z,7.45
2022-11-11T23:16:11.609Z,7.42
2022-11-11T23:18:58.312Z,7.39
2022-11-11T23:21:43.747Z,7.36
2022-11-11T23:24:29.430Z,7.35
2022-11-11T23:27:14.850Z,7.35
2022-11-11T23:30:00.550Z,7.42
2022-11-11T23:32:46.250Z,7.45
2022-11-11T23:35:31.809Z,7.48
2022-11-11T23:38:17.571Z,7.52
2022-11-11T23:41:03.808Z,7.57
2022-11-11T23:43:49.438Z,7.52
2022-11-11T23:46:35.026Z,7.54
2022-11-11T23:49:20.488Z,7.52
2022-11-11T23:52:06.091Z,7.49
2022-11-11T23:54:51.509Z,7.50
2022-11-11T23:57:37.093Z,7.48
